Observation data for Spur on 09/11/2019      Previous  Date       Current Mesonet Observations  Soil Data  Daily Summary Page  Observations in Plain Language
KSP1 110500Z 15004KT 25/16 A3003 RMK A01 T02520159  RH  059%=      5-min Rain = 0
KSP1 110505Z 15005KT 25/16 A3003 RMK A01 T02510160  RH  060%=      5-min Rain = 0
KSP1 110510Z 16005KT 25/16 A3003 RMK A01 T02520161  RH  060%=      5-min Rain = 0
KSP1 110515Z 17005KT 25/17 A3004 RMK A01 T02520165  RH  062%=      5-min Rain = 0.01
KSP1 110520Z 16004KT 24/17 A3004 RMK A01 T02440173  RH  068%=      5-min Rain = 0.01
KSP1 110525Z 15005KT 24/17 A3004 RMK A01 T02420174  RH  069%=      5-min Rain = 0
KSP1 110530Z 18004KT 24/18 A3004 RMK A01 T02410176  RH  071%=      5-min Rain = 0
KSP1 110535Z 17004KT 24/18 A3004 RMK A01 T02390175  RH  071%=      5-min Rain = 0
KSP1 110540Z 15004KT 24/17 A3004 RMK A01 T02420172  RH  068%=      5-min Rain = 0
KSP1 110545Z 15004KT 25/17 A3004 RMK A01 T02460170  RH  066%=      5-min Rain = 0
KSP1 110550Z 15005KT 25/17 A3004 RMK A01 T02460170  RH  066%=      5-min Rain = 0
KSP1 110555Z 15005KT 25/17 A3005 RMK A01 T02470171  RH  065%=      5-min Rain = 0
KSP1 110600Z 14005KT 25/17 A3005 RMK A01 T02470171  RH  066%=      5-min Rain = 0
KSP1 110605Z 16006KT 25/17 A3005 RMK A01 T02480165  RH  063%=      5-min Rain = 0
KSP1 110610Z 16006KT 25/16 A3004 RMK A01 T02510163  RH  061%=      5-min Rain = 0
KSP1 110615Z 18006KT 25/16 A3004 RMK A01 T02510162  RH  061%=      5-min Rain = 0
KSP1 110620Z 19006G11KT 25/16 A3004 RMK A01 T02520162  RH  060%=      5-min Rain = 0
KSP1 110625Z 19008KT 26/16 A3005 RMK A01 T02550162  RH  059%=      5-min Rain = 0
KSP1 110630Z 19009KT 26/16 A3005 RMK A01 T02550163  RH  059%=      5-min Rain = 0
KSP1 110635Z 18008KT 26/16 A3005 RMK A01 T02560163  RH  059%=      5-min Rain = 0
KSP1 110640Z 19007KT 25/16 A3005 RMK A01 T02540163  RH  060%=      5-min Rain = 0
KSP1 110645Z 19007KT 25/16 A3005 RMK A01 T02520164  RH  061%=      5-min Rain = 0
KSP1 110650Z 19006KT 25/16 A3006 RMK A01 T02500164  RH  062%=      5-min Rain = 0
KSP1 110655Z 19006G11KT 25/17 A3006 RMK A01 T02490165  RH  062%=      5-min Rain = 0
KSP1 110700Z 20009KT 25/16 A3006 RMK A01 T02510163  RH  061%=      5-min Rain = 0
KSP1 110705Z 20010KT 25/16 A3005 RMK A01 T02530164  RH  061%=      5-min Rain = 0
KSP1 110710Z 20011KT 25/17 A3005 RMK A01 T02520165  RH  061%=      5-min Rain = 0
KSP1 110715Z 20010KT 25/17 A3005 RMK A01 T02510166  RH  062%=      5-min Rain = 0
KSP1 110720Z 21009KT 25/17 A3005 RMK A01 T02490167  RH  063%=      5-min Rain = 0
KSP1 110725Z 21008KT 25/17 A3005 RMK A01 T02460167  RH  065%=      5-min Rain = 0
KSP1 110730Z 21007KT 25/17 A3005 RMK A01 T02450168  RH  065%=      5-min Rain = 0
KSP1 110735Z 20007KT 24/17 A3005 RMK A01 T02430168  RH  066%=      5-min Rain = 0
KSP1 110740Z 19007KT 24/17 A3005 RMK A01 T02410168  RH  067%=      5-min Rain = 0
KSP1 110745Z 19006KT 24/17 A3005 RMK A01 T02400168  RH  067%=      5-min Rain = 0
KSP1 110750Z 19006KT 24/17 A3005 RMK A01 T02380168  RH  068%=      5-min Rain = 0
KSP1 110755Z 19006KT 24/17 A3005 RMK A01 T02370168  RH  068%=      5-min Rain = 0
KSP1 110800Z 19006KT 24/17 A3005 RMK A01 T02350168  RH  069%=      5-min Rain = 0
KSP1 110805Z 18005KT 23/17 A3005 RMK A01 T02330167  RH  070%=      5-min Rain = 0
KSP1 110810Z 18005KT 23/17 A3004 RMK A01 T02320167  RH  070%=      5-min Rain = 0
KSP1 110815Z 17005KT 23/17 A3004 RMK A01 T02300167  RH  071%=      5-min Rain = 0
KSP1 110820Z 16005KT 23/17 A3005 RMK A01 T02280167  RH  072%=      5-min Rain = 0
KSP1 110825Z 17004KT 23/17 A3004 RMK A01 T02270167  RH  072%=      5-min Rain = 0
KSP1 110830Z 20005KT 23/17 A3004 RMK A01 T02260167  RH  073%=      5-min Rain = 0
KSP1 110835Z 19004KT 23/17 A3004 RMK A01 T02270167  RH  073%=      5-min Rain = 0
KSP1 110840Z 19004KT 23/17 A3004 RMK A01 T02260167  RH  073%=      5-min Rain = 0
KSP1 110845Z 20003KT 23/17 A3004 RMK A01 T02250167  RH  074%=      5-min Rain = 0
KSP1 110850Z 19003KT 22/17 A3004 RMK A01 T02240167  RH  074%=      5-min Rain = 0
KSP1 110855Z 19004KT 22/17 A3004 RMK A01 T02230167  RH  074%=      5-min Rain = 0
KSP1 110900Z 18004KT 22/17 A3004 RMK A01 T02220167  RH  074%=      5-min Rain = 0
KSP1 110905Z 19004KT 22/17 A3004 RMK A01 T02210167  RH  075%=      5-min Rain = 0
KSP1 110910Z 19004KT 22/17 A3004 RMK A01 T02200168  RH  076%=      5-min Rain = 0
KSP1 110915Z 17003KT 22/17 A3005 RMK A01 T02190167  RH  076%=      5-min Rain = 0
KSP1 110920Z 16003KT 22/17 A3004 RMK A01 T02190167  RH  076%=      5-min Rain = 0
KSP1 110925Z 15003KT 22/17 A3004 RMK A01 T02180167  RH  076%=      5-min Rain = 0
KSP1 110930Z 15004KT 22/17 A3004 RMK A01 T02180167  RH  076%=      5-min Rain = 0
KSP1 110935Z 16005KT 22/17 A3004 RMK A01 T02180168  RH  077%=      5-min Rain = 0
KSP1 110940Z 17006KT 22/17 A3004 RMK A01 T02190169  RH  077%=      5-min Rain = 0
KSP1 110945Z 18004KT 22/17 A3004 RMK A01 T02190170  RH  078%=      5-min Rain = 0
KSP1 110950Z 18004KT 22/17 A3004 RMK A01 T02190171  RH  078%=      5-min Rain = 0
KSP1 110955Z 18004KT 22/17 A3004 RMK A01 T02190171  RH  078%=      5-min Rain = 0
KSP1 111000Z 18004KT 22/17 A3004 RMK A01 T02180171  RH  078%=      5-min Rain = 0
KSP1 111005Z 17004KT 22/17 A3004 RMK A01 T02160170  RH  079%=      5-min Rain = 0
KSP1 111010Z 17004KT 22/17 A3004 RMK A01 T02150170  RH  079%=      5-min Rain = 0
KSP1 111015Z 18005KT 22/17 A3004 RMK A01 T02150170  RH  080%=      5-min Rain = 0
KSP1 111020Z 18006KT 22/17 A3005 RMK A01 T02150171  RH  080%=      5-min Rain = 0
KSP1 111025Z 19005KT 22/17 A3005 RMK A01 T02160171  RH  079%=      5-min Rain = 0
KSP1 111030Z 19005KT 22/17 A3005 RMK A01 T02170171  RH  079%=      5-min Rain = 0
KSP1 111035Z 19005KT 22/17 A3005 RMK A01 T02160171  RH  080%=      5-min Rain = 0
KSP1 111040Z 19005KT 22/17 A3005 RMK A01 T02150171  RH  080%=      5-min Rain = 0
KSP1 111045Z 18006KT 22/17 A3005 RMK A01 T02150171  RH  080%=      5-min Rain = 0
KSP1 111050Z 17006KT 22/17 A3005 RMK A01 T02150171  RH  080%=      5-min Rain = 0
KSP1 111055Z 17005KT 21/17 A3005 RMK A01 T02140170  RH  080%=      5-min Rain = 0
KSP1 111100Z 17006KT 21/17 A3005 RMK A01 T02140170  RH  080%=      5-min Rain = 0
KSP1 111105Z 16006KT 21/17 A3005 RMK A01 T02140170  RH  080%=      5-min Rain = 0
KSP1 111110Z 16005KT 21/17 A3005 RMK A01 T02120169  RH  080%=      5-min Rain = 0
KSP1 111115Z 16004KT 21/17 A3005 RMK A01 T02100169  RH  081%=      5-min Rain = 0
KSP1 111120Z 16004KT 21/17 A3005 RMK A01 T02080168  RH  082%=      5-min Rain = 0
KSP1 111125Z 16005KT 21/17 A3005 RMK A01 T02070168  RH  082%=      5-min Rain = 0
KSP1 111130Z 16004KT 21/17 A3005 RMK A01 T02060167  RH  083%=      5-min Rain = 0
KSP1 111135Z 14004KT 20/17 A3005 RMK A01 T02040167  RH  083%=      5-min Rain = 0
KSP1 111140Z 14004KT 20/17 A3006 RMK A01 T02020165  RH  084%=      5-min Rain = 0
KSP1 111145Z 14004KT 20/17 A3006 RMK A01 T02010165  RH  084%=      5-min Rain = 0
KSP1 111150Z 14005KT 20/17 A3006 RMK A01 T02000165  RH  084%=      5-min Rain = 0
KSP1 111155Z 15004KT 20/16 A3006 RMK A01 T01980164  RH  085%=      5-min Rain = 0
KSP1 111200Z 15004KT 20/16 A3006 RMK A01 T01970163  RH  085%=      5-min Rain = 0
KSP1 111205Z 15004KT 20/16 A3007 RMK A01 T01970163  RH  085%=      5-min Rain = 0
KSP1 111210Z 15004KT 20/16 A3007 RMK A01 T01970163  RH  085%=      5-min Rain = 0
KSP1 111215Z 15004KT 20/16 A3007 RMK A01 T01960163  RH  085%=      5-min Rain = 0
KSP1 111220Z 15004KT 20/16 A3007 RMK A01 T01960163  RH  085%=      5-min Rain = 0
KSP1 111225Z 16004KT 20/16 A3007 RMK A01 T01960163  RH  085%=      5-min Rain = 0
KSP1 111230Z 16005KT 20/16 A3007 RMK A01 T01970163  RH  085%=      5-min Rain = 0
KSP1 111235Z 16005KT 20/16 A3007 RMK A01 T01970163  RH  085%=      5-min Rain = 0
KSP1 111240Z 16004KT 20/16 A3008 RMK A01 T01980163  RH  084%=      5-min Rain = 0
KSP1 111245Z 17004KT 20/16 A3008 RMK A01 T01980164  RH  085%=      5-min Rain = 0
KSP1 111250Z 16004KT 20/16 A3008 RMK A01 T01990164  RH  084%=      5-min Rain = 0
KSP1 111255Z 17004KT 20/16 A3008 RMK A01 T02000164  RH  084%=      5-min Rain = 0
KSP1 111300Z 16004KT 20/17 A3009 RMK A01 T02010165  RH  083%=      5-min Rain = 0
KSP1 111305Z 16004KT 20/17 A3009 RMK A01 T02010165  RH  083%=      5-min Rain = 0
KSP1 111310Z 15004KT 20/17 A3009 RMK A01 T02020166  RH  084%=      5-min Rain = 0
KSP1 111315Z 16004KT 20/17 A3009 RMK A01 T02040167  RH  083%=      5-min Rain = 0
KSP1 111320Z 16005KT 21/17 A301 RMK A01 T02070168  RH  082%=      5-min Rain = 0
KSP1 111325Z 18005KT 21/17 A301 RMK A01 T02100170  RH  082%=      5-min Rain = 0
KSP1 111330Z 18006KT 22/17 A301 RMK A01 T02150171  RH  080%=      5-min Rain = 0
KSP1 111335Z 19008KT 22/17 A301 RMK A01 T02190172  RH  078%=      5-min Rain = 0
KSP1 111340Z 19010KT 22/17 A301 RMK A01 T02200172  RH  078%=      5-min Rain = 0
KSP1 111345Z 19011G16KT 22/17 A301 RMK A01 T02210173  RH  078%=      5-min Rain = 0
KSP1 111350Z 20011G16KT 22/17 A301 RMK A01 T02220173  RH  078%=      5-min Rain = 0
KSP1 111355Z 20012G17KT 22/17 A301 RMK A01 T02230174  RH  078%=      5-min Rain = 0
KSP1 111400Z 20011G16KT 23/18 A301 RMK A01 T02250175  RH  077%=      5-min Rain = 0
KSP1 111405Z 20013KT 23/18 A301 RMK A01 T02260175  RH  077%=      5-min Rain = 0
KSP1 111410Z 20010KT 23/18 A301 RMK A01 T02270176  RH  077%=      5-min Rain = 0
KSP1 111415Z 20010KT 23/18 A301 RMK A01 T02280177  RH  077%=      5-min Rain = 0
KSP1 111420Z 19010G16KT 23/18 A301 RMK A01 T02290177  RH  076%=      5-min Rain = 0
KSP1 111425Z 20010KT 23/18 A301 RMK A01 T02300177  RH  076%=      5-min Rain = 0
KSP1 111430Z 20012KT 23/18 A301 RMK A01 T02300177  RH  076%=      5-min Rain = 0
KSP1 111435Z 21010KT 23/18 A301 RMK A01 T02300178  RH  076%=      5-min Rain = 0
KSP1 111440Z 21010G15KT 23/18 A301 RMK A01 T02320179  RH  076%=      5-min Rain = 0
KSP1 111445Z 21010KT 23/18 A301 RMK A01 T02320180  RH  076%=      5-min Rain = 0
KSP1 111450Z 21010KT 23/18 A301 RMK A01 T02320180  RH  076%=      5-min Rain = 0
KSP1 111455Z 21012G17KT 23/18 A301 RMK A01 T02320179  RH  076%=      5-min Rain = 0
KSP1 111500Z 21011G16KT 23/18 A3011 RMK A01 T02330180  RH  076%=      5-min Rain = 0
KSP1 111505Z 20010KT 23/18 A3011 RMK A01 T02340181  RH  076%=      5-min Rain = 0
KSP1 111510Z 21010KT 24/18 A301 RMK A01 T02370182  RH  075%=      5-min Rain = 0
KSP1 111515Z 21011KT 24/18 A301 RMK A01 T02410183  RH  074%=      5-min Rain = 0
KSP1 111520Z 21010G15KT 24/18 A301 RMK A01 T02410183  RH  074%=      5-min Rain = 0
KSP1 111525Z 21011KT 24/18 A301 RMK A01 T02420182  RH  073%=      5-min Rain = 0
KSP1 111530Z 21011G17KT 24/18 A3011 RMK A01 T02430183  RH  073%=      5-min Rain = 0
KSP1 111535Z 21010G15KT 25/18 A3011 RMK A01 T02460184  RH  072%=      5-min Rain = 0
KSP1 111540Z 21011KT 25/18 A301 RMK A01 T02460183  RH  071%=      5-min Rain = 0
KSP1 111545Z 21012KT 25/18 A301 RMK A01 T02480183  RH  071%=      5-min Rain = 0
KSP1 111550Z 21009G14KT 25/19 A301 RMK A01 T02510185  RH  070%=      5-min Rain = 0
KSP1 111555Z 20010KT 25/19 A301 RMK A01 T02530185  RH  070%=      5-min Rain = 0
KSP1 111600Z 21010G15KT 25/19 A301 RMK A01 T02540185  RH  069%=      5-min Rain = 0
KSP1 111605Z 20011G16KT 25/18 A301 RMK A01 T02530184  RH  069%=      5-min Rain = 0
KSP1 111610Z 21010G16KT 26/19 A301 RMK A01 T02570186  RH  068%=      5-min Rain = 0
KSP1 111615Z 21012G17KT 26/19 A301 RMK A01 T02590185  RH  067%=      5-min Rain = 0
KSP1 111620Z 20011KT 26/19 A301 RMK A01 T02600185  RH  067%=      5-min Rain = 0
KSP1 111625Z 21012G18KT 27/19 A301 RMK A01 T02660187  RH  065%=      5-min Rain = 0
KSP1 111630Z 21013KT 26/18 A301 RMK A01 T02610184  RH  066%=      5-min Rain = 0
KSP1 111635Z 21011G18KT 26/18 A301 RMK A01 T02640184  RH  065%=      5-min Rain = 0
KSP1 111640Z 22014G19KT 26/18 A301 RMK A01 T02610182  RH  065%=      5-min Rain = 0
KSP1 111645Z 21012G17KT 26/18 A301 RMK A01 T02600183  RH  066%=      5-min Rain = 0
KSP1 111650Z 22012KT 26/18 A301 RMK A01 T02630183  RH  065%=      5-min Rain = 0
KSP1 111655Z 21010KT 26/18 A301 RMK A01 T02640184  RH  065%=      5-min Rain = 0
KSP1 111700Z 21012KT 26/18 A301 RMK A01 T02630183  RH  065%=      5-min Rain = 0
KSP1 111705Z 20012G17KT 26/18 A301 RMK A01 T02640183  RH  064%=      5-min Rain = 0
KSP1 111710Z 19013KT 27/18 A301 RMK A01 T02660182  RH  063%=      5-min Rain = 0
KSP1 111715Z 19013G18KT 27/18 A301 RMK A01 T02660182  RH  063%=      5-min Rain = 0
KSP1 111720Z 19012G17KT 27/18 A301 RMK A01 T02700183  RH  062%=      5-min Rain = 0
KSP1 111725Z 20013G19KT 27/18 A301 RMK A01 T02710183  RH  062%=      5-min Rain = 0
KSP1 111730Z 18012KT 27/18 A3009 RMK A01 T02710182  RH  062%=      5-min Rain = 0
KSP1 111735Z 18010G15KT 27/18 A3009 RMK A01 T02710183  RH  062%=      5-min Rain = 0
KSP1 111740Z 18010G15KT 28/18 A3009 RMK A01 T02770184  RH  060%=      5-min Rain = 0
KSP1 111745Z 18010G17KT 28/18 A3009 RMK A01 T02800184  RH  059%=      5-min Rain = 0
KSP1 111750Z 17011KT 28/18 A3008 RMK A01 T02840184  RH  058%=      5-min Rain = 0
KSP1 111755Z 18011G19KT 28/18 A3008 RMK A01 T02810183  RH  058%=      5-min Rain = 0
KSP1 111800Z 18011G20KT 28/18 A3008 RMK A01 T02800183  RH  059%=      5-min Rain = 0
KSP1 111805Z 18009G15KT 29/18 A3008 RMK A01 T02870183  RH  057%=      5-min Rain = 0
KSP1 111810Z 20010G15KT 28/18 A3008 RMK A01 T02840183  RH  058%=      5-min Rain = 0
KSP1 111815Z 20009G15KT 28/18 A3007 RMK A01 T02810183  RH  058%=      5-min Rain = 0
KSP1 111820Z 19011G19KT 29/18 A3007 RMK A01 T02890184  RH  056%=      5-min Rain = 0
KSP1 111825Z 18011G18KT 29/18 A3007 RMK A01 T02930182  RH  054%=      5-min Rain = 0
KSP1 111830Z 19011G16KT 29/18 A3007 RMK A01 T02910181  RH  054%=      5-min Rain = 0
KSP1 111835Z 18012G19KT 29/18 A3007 RMK A01 T02880182  RH  055%=      5-min Rain = 0
KSP1 111840Z 18010G15KT 29/18 A3006 RMK A01 T02900183  RH  055%=      5-min Rain = 0
KSP1 111845Z 18010G15KT 29/18 A3006 RMK A01 T02890182  RH  055%=      5-min Rain = 0
KSP1 111850Z 18010G15KT 29/18 A3006 RMK A01 T02940183  RH  054%=      5-min Rain = 0
KSP1 111855Z 17010G15KT 30/18 A3006 RMK A01 T02990184  RH  053%=      5-min Rain = 0
KSP1 111900Z 17010G15KT 30/18 A3005 RMK A01 T02970181  RH  052%=      5-min Rain = 0
KSP1 111905Z 18009G15KT 30/18 A3005 RMK A01 T03010183  RH  052%=      5-min Rain = 0
KSP1 111910Z 18010G15KT 30/18 A3005 RMK A01 T03000178  RH  051%=      5-min Rain = 0
KSP1 111915Z 18011G17KT 30/18 A3005 RMK A01 T02980179  RH  051%=      5-min Rain = 0
KSP1 111920Z 18011G18KT 31/18 A3004 RMK A01 T03060181  RH  050%=      5-min Rain = 0
KSP1 111925Z 18011G16KT 31/18 A3004 RMK A01 T03050180  RH  050%=      5-min Rain = 0
KSP1 111930Z 18012G18KT 31/18 A3004 RMK A01 T03090179  RH  048%=      5-min Rain = 0
KSP1 111935Z 20012G17KT 31/18 A3003 RMK A01 T03060179  RH  049%=      5-min Rain = 0
KSP1 111940Z 18011G19KT 30/18 A3003 RMK A01 T03040178  RH  049%=      5-min Rain = 0
KSP1 111945Z 18011G16KT 30/18 A3003 RMK A01 T03040179  RH  050%=      5-min Rain = 0
KSP1 111950Z 17010G15KT 31/18 A3003 RMK A01 T03120178  RH  047%=      5-min Rain = 0
KSP1 111955Z 18012G18KT 31/18 A3002 RMK A01 T03140179  RH  047%=      5-min Rain = 0
KSP1 112000Z 17010G16KT 32/18 A3002 RMK A01 T03170179  RH  046%=      5-min Rain = 0
KSP1 112005Z 19012G18KT 32/18 A3001 RMK A01 T03190179  RH  046%=      5-min Rain = 0
KSP1 112010Z 18010G16KT 32/18 A3001 RMK A01 T03180177  RH  045%=      5-min Rain = 0
KSP1 112015Z 17012G17KT 31/18 A3001 RMK A01 T03100176  RH  047%=      5-min Rain = 0
KSP1 112020Z 20011G17KT 31/18 A30 RMK A01 T03130175  RH  046%=      5-min Rain = 0
KSP1 112025Z 18010G17KT 31/18 A30 RMK A01 T03140177  RH  046%=      5-min Rain = 0
KSP1 112030Z 18010G15KT 32/18 A30 RMK A01 T03210177  RH  045%=      5-min Rain = 0
KSP1 112035Z 19010KT 32/18 A30 RMK A01 T03230176  RH  044%=      5-min Rain = 0
KSP1 112040Z 19012G19KT 32/18 A2999 RMK A01 T03160175  RH  045%=      5-min Rain = 0
KSP1 112045Z 18010G22KT 32/18 A2999 RMK A01 T03160176  RH  045%=      5-min Rain = 0
KSP1 112050Z 17010KT 32/17 A2999 RMK A01 T03220174  RH  044%=      5-min Rain = 0
KSP1 112055Z 19013KT 32/18 A2998 RMK A01 T03230175  RH  043%=      5-min Rain = 0
KSP1 112100Z 17010G15KT 33/18 A2998 RMK A01 T03270176  RH  043%=      5-min Rain = 0
KSP1 112105Z 17011G16KT 33/17 A2998 RMK A01 T03310174  RH  041%=      5-min Rain = 0
KSP1 112110Z 18011G18KT 33/17 A2998 RMK A01 T03320172  RH  041%=      5-min Rain = 0
KSP1 112115Z 19013G18KT 33/18 A2998 RMK A01 T03340176  RH  041%=      5-min Rain = 0
KSP1 112120Z 16012G19KT 33/18 A2998 RMK A01 T03340176  RH  041%=      5-min Rain = 0
KSP1 112125Z 17011G19KT 33/17 A2998 RMK A01 T03290173  RH  042%=      5-min Rain = 0
KSP1 112130Z 20013G20KT 33/17 A2997 RMK A01 T03320173  RH  041%=      5-min Rain = 0
KSP1 112135Z 19014G21KT 33/17 A2997 RMK A01 T03300172  RH  041%=      5-min Rain = 0
KSP1 112140Z 18012G19KT 32/17 A2997 RMK A01 T03200171  RH  043%=      5-min Rain = 0
KSP1 112145Z 19015G21KT 32/18 A2997 RMK A01 T03180175  RH  045%=      5-min Rain = 0
KSP1 112150Z 18016G27KT 32/18 A2997 RMK A01 T03160179  RH  046%=      5-min Rain = 0
KSP1 112155Z 17018G26KT 30/18 A2998 RMK A01 T03040184  RH  051%=      5-min Rain = 0
KSP1 112200Z 17017G24KT 31/18 A2998 RMK A01 T03060184  RH  051%=      5-min Rain = 0
KSP1 112205Z 16015G21KT 30/18 A2998 RMK A01 T03040184  RH  051%=      5-min Rain = 0
KSP1 112210Z 15014G22KT 31/19 A2998 RMK A01 T03080185  RH  050%=      5-min Rain = 0
KSP1 112215Z 15015G23KT 30/18 A2998 RMK A01 T03020184  RH  052%=      5-min Rain = 0
KSP1 112220Z 16014G21KT 29/18 A2998 RMK A01 T02910184  RH  055%=      5-min Rain = 0
KSP1 112225Z 17014G20KT 28/18 A2998 RMK A01 T02820184  RH  058%=      5-min Rain = 0
KSP1 112230Z 17013G23KT 28/18 A2998 RMK A01 T02830182  RH  057%=      5-min Rain = 0
KSP1 112235Z 18013G19KT 29/18 A2998 RMK A01 T02860179  RH  055%=      5-min Rain = 0
KSP1 112240Z 18011G18KT 29/18 A2998 RMK A01 T02860179  RH  055%=      5-min Rain = 0
KSP1 112245Z 18012G18KT 29/19 A2998 RMK A01 T02910185  RH  056%=      5-min Rain = 0
KSP1 112250Z 17011G17KT 29/19 A2998 RMK A01 T02930187  RH  056%=      5-min Rain = 0
KSP1 112255Z 18015KT 29/19 A2997 RMK A01 T02920187  RH  056%=      5-min Rain = 0
KSP1 112300Z 17014G19KT 29/19 A2997 RMK A01 T02920189  RH  057%=      5-min Rain = 0
KSP1 112305Z 17011G17KT 29/19 A2997 RMK A01 T02930189  RH  057%=      5-min Rain = 0
KSP1 112310Z 16012G17KT 29/19 A2998 RMK A01 T02930188  RH  056%=      5-min Rain = 0
KSP1 112315Z 16012G17KT 29/19 A2998 RMK A01 T02940186  RH  055%=      5-min Rain = 0
KSP1 112320Z 17010G15KT 30/18 A2998 RMK A01 T02970184  RH  054%=      5-min Rain = 0
KSP1 112325Z 16011G16KT 30/19 A2998 RMK A01 T02980185  RH  054%=      5-min Rain = 0
KSP1 112330Z 16012KT 29/19 A2998 RMK A01 T02940186  RH  055%=      5-min Rain = 0
KSP1 112335Z 16012KT 29/19 A2998 RMK A01 T02920188  RH  056%=      5-min Rain = 0
KSP1 112340Z 17011G16KT 29/19 A2998 RMK A01 T02890190  RH  058%=      5-min Rain = 0
KSP1 112345Z 17013G18KT 29/19 A2998 RMK A01 T02870190  RH  059%=      5-min Rain = 0
KSP1 112350Z 17012G17KT 29/19 A2998 RMK A01 T02880191  RH  059%=      5-min Rain = 0
KSP1 112355Z 16011G16KT 29/19 A2999 RMK A01 T02860190  RH  059%=      5-min Rain = 0
KSP1 120000Z 17011G17KT 29/19 A2999 RMK A01 T02860190  RH  059%=      5-min Rain = 0
KSP1 120005Z 17013G18KT 28/19 A2999 RMK A01 T02840189  RH  060%=      5-min Rain = 0
KSP1 120010Z 17011G16KT 28/19 A2999 RMK A01 T02820188  RH  060%=      5-min Rain = 0
KSP1 120015Z 17012G17KT 28/18 A2999 RMK A01 T02810184  RH  059%=      5-min Rain = 0
KSP1 120020Z 17011G16KT 28/18 A2999 RMK A01 T02810180  RH  057%=      5-min Rain = 0
KSP1 120025Z 17010G16KT 28/18 A2999 RMK A01 T02800179  RH  057%=      5-min Rain = 0
KSP1 120030Z 18010KT 28/18 A2999 RMK A01 T02790179  RH  057%=      5-min Rain = 0
KSP1 120035Z 18008G13KT 28/18 A2999 RMK A01 T02780179  RH  058%=      5-min Rain = 0
KSP1 120040Z 17009G15KT 28/18 A2999 RMK A01 T02770178  RH  058%=      5-min Rain = 0
KSP1 120045Z 17010G15KT 28/18 A2999 RMK A01 T02760178  RH  058%=      5-min Rain = 0
KSP1 120050Z 17008G14KT 28/18 A2999 RMK A01 T02750178  RH  059%=      5-min Rain = 0
KSP1 120055Z 17007KT 27/18 A30 RMK A01 T02730179  RH  059%=      5-min Rain = 0
KSP1 120100Z 17008KT 27/18 A30 RMK A01 T02720179  RH  060%=      5-min Rain = 0
KSP1 120105Z 17008KT 27/18 A2999 RMK A01 T02710179  RH  060%=      5-min Rain = 0
KSP1 120110Z 17007KT 27/18 A30 RMK A01 T02700179  RH  061%=      5-min Rain = 0
KSP1 120115Z 17007KT 27/18 A30 RMK A01 T02680179  RH  061%=      5-min Rain = 0
KSP1 120120Z 17006KT 27/18 A30 RMK A01 T02680179  RH  061%=      5-min Rain = 0
KSP1 120125Z 18005KT 27/18 A30 RMK A01 T02670179  RH  062%=      5-min Rain = 0
KSP1 120130Z 19005KT 27/18 A30 RMK A01 T02660179  RH  062%=      5-min Rain = 0
KSP1 120135Z 19005KT 27/18 A3001 RMK A01 T02650179  RH  062%=      5-min Rain = 0
KSP1 120140Z 18004KT 26/18 A3001 RMK A01 T02630179  RH  063%=      5-min Rain = 0
KSP1 120145Z 17005KT 26/18 A3001 RMK A01 T02600179  RH  064%=      5-min Rain = 0
KSP1 120150Z 16006KT 26/18 A3001 RMK A01 T02580179  RH  065%=      5-min Rain = 0
KSP1 120155Z 16006KT 26/18 A3001 RMK A01 T02570179  RH  066%=      5-min Rain = 0
KSP1 120200Z 16006KT 26/18 A3001 RMK A01 T02570179  RH  065%=      5-min Rain = 0
KSP1 120205Z 16007KT 26/18 A3001 RMK A01 T02580179  RH  065%=      5-min Rain = 0
KSP1 120210Z 16006KT 26/18 A3001 RMK A01 T02580179  RH  065%=      5-min Rain = 0
KSP1 120215Z 17007KT 26/18 A3001 RMK A01 T02580179  RH  065%=      5-min Rain = 0
KSP1 120220Z 16006KT 26/18 A3001 RMK A01 T02580179  RH  065%=      5-min Rain = 0
KSP1 120225Z 16006KT 26/18 A3001 RMK A01 T02570179  RH  065%=      5-min Rain = 0
KSP1 120230Z 16005KT 26/18 A3002 RMK A01 T02560179  RH  066%=      5-min Rain = 0
KSP1 120235Z 16006KT 26/18 A3002 RMK A01 T02560179  RH  066%=      5-min Rain = 0
KSP1 120240Z 15005KT 26/18 A3002 RMK A01 T02550179  RH  066%=      5-min Rain = 0
KSP1 120245Z 16006KT 25/18 A3002 RMK A01 T02540179  RH  067%=      5-min Rain = 0
KSP1 120250Z 16006KT 25/18 A3002 RMK A01 T02540180  RH  067%=      5-min Rain = 0
KSP1 120255Z 16006KT 25/18 A3002 RMK A01 T02530180  RH  067%=      5-min Rain = 0
KSP1 120300Z 16007KT 25/18 A3002 RMK A01 T02530179  RH  067%=      5-min Rain = 0
KSP1 120305Z 16007KT 25/18 A3002 RMK A01 T02540179  RH  067%=      5-min Rain = 0
KSP1 120310Z 16008KT 26/18 A3002 RMK A01 T02550179  RH  066%=      5-min Rain = 0
KSP1 120315Z 16007KT 26/18 A3002 RMK A01 T02550179  RH  066%=      5-min Rain = 0
KSP1 120320Z 16007G12KT 26/18 A3002 RMK A01 T02550179  RH  066%=      5-min Rain = 0
KSP1 120325Z 16007KT 26/18 A3002 RMK A01 T02550179  RH  066%=      5-min Rain = 0
KSP1 120330Z 15007KT 26/18 A3002 RMK A01 T02550179  RH  066%=      5-min Rain = 0
KSP1 120335Z 15007KT 25/18 A3002 RMK A01 T02540179  RH  067%=      5-min Rain = 0
KSP1 120340Z 15006KT 25/18 A3003 RMK A01 T02540179  RH  067%=      5-min Rain = 0
KSP1 120345Z 15007KT 25/18 A3003 RMK A01 T02540180  RH  067%=      5-min Rain = 0
KSP1 120350Z 16007KT 25/18 A3003 RMK A01 T02540180  RH  067%=      5-min Rain = 0
KSP1 120355Z 15007KT 25/18 A3003 RMK A01 T02530180  RH  067%=      5-min Rain = 0
KSP1 120400Z 15007KT 25/18 A3003 RMK A01 T02530180  RH  068%=      5-min Rain = 0
KSP1 120405Z 15006KT 25/18 A3003 RMK A01 T02520180  RH  068%=      5-min Rain = 0
KSP1 120410Z 15006KT 25/18 A3003 RMK A01 T02500180  RH  069%=      5-min Rain = 0
KSP1 120415Z 15006KT 25/18 A3003 RMK A01 T02490180  RH  069%=      5-min Rain = 0
KSP1 120420Z 15006KT 25/18 A3003 RMK A01 T02480180  RH  069%=      5-min Rain = 0
KSP1 120425Z 16006KT 25/18 A3003 RMK A01 T02480180  RH  070%=      5-min Rain = 0
KSP1 120430Z 16007KT 25/18 A3003 RMK A01 T02490181  RH  070%=      5-min Rain = 0
KSP1 120435Z 15006KT 25/18 A3003 RMK A01 T02480182  RH  070%=      5-min Rain = 0
KSP1 120440Z 16006KT 25/18 A3003 RMK A01 T02480183  RH  071%=      5-min Rain = 0
KSP1 120445Z 16007KT 25/18 A3003 RMK A01 T02480183  RH  071%=      5-min Rain = 0
KSP1 120450Z 16007KT 25/18 A3003 RMK A01 T02480183  RH  071%=      5-min Rain = 0
KSP1 120455Z 17006KT 25/18 A3003 RMK A01 T02480184  RH  071%=      5-min Rain = 0

Page generated in 0.0092 seconds.